16°C Temp
14°C Dewpoint
88% Humidity
Temperature
8 KM/H
5 MPH
4 KTS
220°
South West

Wind Speed
Clear
Conditions
Pressure 1014.92 (hPa) - 29.97 (in)
Visibility 6.2 (mi) - 10.0 (km)

Current Conditions
UKLI
Location 9(km)
Metar :UKLI 022000Z 22002MPS CAVOK 16/14 Q1015 R28/090070 NOSIG
Mon 2nd August 23:00 pm

Airport